createdAt,value
2018-07-29T00:02:26.732Z,4.60
2018-07-29T00:04:55.157Z,4.67
2018-07-29T00:07:23.501Z,4.50
2018-07-29T00:09:51.803Z,4.47
2018-07-29T00:12:20.177Z,4.63
2018-07-29T00:14:48.509Z,4.67
2018-07-29T00:17:16.857Z,4.37
2018-07-29T00:19:45.179Z,4.40
2018-07-29T00:22:13.489Z,4.10
2018-07-29T00:24:41.845Z,4.30
2018-07-29T00:27:10.194Z,4.33
2018-07-29T00:29:38.545Z,4.33
2018-07-29T00:32:07.334Z,4.20
2018-07-29T00:34:35.690Z,4.30
2018-07-29T00:37:04.030Z,4.37
2018-07-29T00:39:32.378Z,4.23
2018-07-29T00:42:00.469Z,4.30
2018-07-29T00:44:28.932Z,4.90
2018-07-29T00:46:57.440Z,4.90
2018-07-29T00:49:25.785Z,4.13
2018-07-29T00:51:54.097Z,4.30
2018-07-29T00:54:22.442Z,4.70
2018-07-29T00:56:50.774Z,4.67
2018-07-29T00:59:19.109Z,5.83
2018-07-29T01:01:47.485Z,5.43
2018-07-29T01:04:15.810Z,4.90
2018-07-29T01:06:44.165Z,5.10
2018-07-29T01:09:13.285Z,5.17
2018-07-29T01:11:41.760Z,5.03
2018-07-29T01:14:10.098Z,5.03
2018-07-29T01:16:38.454Z,4.70
2018-07-29T01:19:07.133Z,5.20
2018-07-29T01:21:35.442Z,4.83
2018-07-29T01:24:03.817Z,4.70
2018-07-29T01:26:32.346Z,5.23
2018-07-29T01:29:01.382Z,4.77
2018-07-29T01:31:31.841Z,5.30
2018-07-29T01:34:00.177Z,4.70
2018-07-29T01:36:28.254Z,4.83
2018-07-29T01:38:56.607Z,4.90
2018-07-29T01:41:24.964Z,5.20
2018-07-29T01:43:53.331Z,4.70
2018-07-29T01:46:21.714Z,4.87
2018-07-29T01:48:50.017Z,5.30
2018-07-29T01:51:18.329Z,5.10
2018-07-29T01:53:46.392Z,5.20
2018-07-29T01:56:14.766Z,4.43
2018-07-29T01:58:43.050Z,5.30
2018-07-29T02:01:11.381Z,4.63
2018-07-29T02:03:39.659Z,4.43
2018-07-29T02:06:07.971Z,4.90
2018-07-29T02:08:36.328Z,4.53
2018-07-29T02:11:04.670Z,4.87
2018-07-29T02:13:33.008Z,4.50
2018-07-29T02:16:01.335Z,5.00
2018-07-29T02:18:29.660Z,4.63
2018-07-29T02:20:57.963Z,4.90
2018-07-29T02:23:26.267Z,4.73
2018-07-29T02:25:54.584Z,4.90
2018-07-29T02:28:22.878Z,4.60
2018-07-29T02:30:51.193Z,5.50
2018-07-29T02:33:19.519Z,4.53
2018-07-29T02:35:47.876Z,4.73
2018-07-29T02:38:16.187Z,4.97
2018-07-29T02:40:44.564Z,4.40
2018-07-29T02:43:12.995Z,6.60
2018-07-29T02:45:41.307Z,4.37
2018-07-29T02:48:09.578Z,4.67
2018-07-29T02:50:37.923Z,4.33
2018-07-29T02:53:06.389Z,4.90
2018-07-29T02:55:35.604Z,4.20
2018-07-29T02:58:03.971Z,4.60
2018-07-29T03:00:32.296Z,4.83
2018-07-29T03:03:00.638Z,4.90
2018-07-29T03:05:28.902Z,4.53
2018-07-29T03:07:57.247Z,5.30
2018-07-29T03:10:25.573Z,5.83
2018-07-29T03:12:53.895Z,5.87
2018-07-29T03:15:22.236Z,5.50
2018-07-29T03:17:50.610Z,5.10
2018-07-29T03:20:18.919Z,6.47
2018-07-29T03:22:47.270Z,5.47
2018-07-29T03:25:15.570Z,5.40
2018-07-29T03:27:43.953Z,5.20
2018-07-29T03:30:12.268Z,5.20
2018-07-29T03:32:40.657Z,4.80
2018-07-29T03:35:08.954Z,5.13
2018-07-29T03:37:37.385Z,5.43
2018-07-29T03:40:05.714Z,5.80
2018-07-29T03:42:34.057Z,5.00
2018-07-29T03:45:02.412Z,4.70
2018-07-29T03:47:30.719Z,5.27
2018-07-29T03:49:59.028Z,4.70
2018-07-29T03:52:27.354Z,5.00
2018-07-29T03:54:55.402Z,5.40
2018-07-29T03:57:23.733Z,5.03
2018-07-29T03:59:52.078Z,4.87
2018-07-29T04:02:20.425Z,5.43
2018-07-29T04:04:48.776Z,5.17
2018-07-29T04:07:17.186Z,5.60
2018-07-29T04:09:45.523Z,4.97
2018-07-29T04:12:13.898Z,5.70
2018-07-29T04:14:42.212Z,5.40
2018-07-29T04:17:10.522Z,6.00
2018-07-29T04:19:38.822Z,4.50
2018-07-29T04:22:07.128Z,5.20
2018-07-29T04:24:35.449Z,5.33
2018-07-29T04:27:03.726Z,4.57
2018-07-29T04:29:32.079Z,5.07
2018-07-29T04:32:00.364Z,4.60
2018-07-29T04:34:28.696Z,5.07
2018-07-29T04:36:57.016Z,5.37
2018-07-29T04:39:25.323Z,5.33
2018-07-29T04:41:53.658Z,5.70
2018-07-29T04:44:21.971Z,5.73
2018-07-29T04:46:50.270Z,5.30
2018-07-29T04:49:18.566Z,5.20
2018-07-29T04:51:46.873Z,5.00
2018-07-29T04:54:15.202Z,5.87
2018-07-29T04:56:43.517Z,4.80
2018-07-29T04:59:11.827Z,4.93
2018-07-29T05:01:40.139Z,5.13
2018-07-29T05:04:08.468Z,4.93
2018-07-29T05:06:36.771Z,5.17
2018-07-29T05:09:06.953Z,5.13
2018-07-29T05:11:35.297Z,4.40
2018-07-29T05:14:03.623Z,4.60
2018-07-29T05:16:31.900Z,4.50
2018-07-29T05:19:00.273Z,4.77
2018-07-29T05:21:28.583Z,4.73
2018-07-29T05:23:56.921Z,4.67
2018-07-29T05:26:25.218Z,4.27
2018-07-29T05:28:53.537Z,4.43
2018-07-29T05:31:21.859Z,6.03
2018-07-29T05:33:50.140Z,4.73
2018-07-29T05:36:18.225Z,4.23
2018-07-29T05:38:46.326Z,4.60
2018-07-29T05:41:14.549Z,4.10
2018-07-29T05:43:42.894Z,4.20
2018-07-29T05:46:11.204Z,3.83
2018-07-29T05:48:39.529Z,3.73
2018-07-29T05:51:07.861Z,3.83
2018-07-29T05:53:36.138Z,4.10
2018-07-29T05:56:04.544Z,3.40
2018-07-29T05:58:32.786Z,3.70
2018-07-29T06:01:01.160Z,4.20
2018-07-29T06:03:29.479Z,3.90
2018-07-29T06:05:57.833Z,3.00
2018-07-29T06:08:26.193Z,3.67
2018-07-29T06:10:54.493Z,3.30
2018-07-29T06:13:22.793Z,3.60
2018-07-29T06:15:51.090Z,3.00
2018-07-29T06:18:19.466Z,3.47
2018-07-29T06:20:47.821Z,3.60
2018-07-29T06:23:16.140Z,3.37
2018-07-29T06:25:44.519Z,3.73
2018-07-29T06:28:12.813Z,3.77
2018-07-29T06:30:41.109Z,3.40
2018-07-29T06:33:09.449Z,4.00
2018-07-29T06:35:37.758Z,3.77
2018-07-29T06:38:06.102Z,3.37
2018-07-29T06:40:34.454Z,3.73
2018-07-29T06:43:02.789Z,3.60
2018-07-29T06:45:31.174Z,3.83
2018-07-29T06:47:59.710Z,3.63
2018-07-29T06:50:28.113Z,3.40
2018-07-29T06:52:56.413Z,3.17
2018-07-29T06:55:24.690Z,3.70
2018-07-29T06:57:53.063Z,3.47
2018-07-29T07:00:21.372Z,4.00
2018-07-29T07:02:49.925Z,3.73
2018-07-29T07:05:18.289Z,3.37
2018-07-29T07:07:46.605Z,3.33
2018-07-29T07:10:14.988Z,3.93
2018-07-29T07:12:43.294Z,3.33
2018-07-29T07:15:11.649Z,3.73
2018-07-29T07:17:40.080Z,3.60
2018-07-29T07:20:08.456Z,3.53
2018-07-29T07:22:36.814Z,3.47
2018-07-29T07:25:05.274Z,3.40
2018-07-29T07:27:33.688Z,3.33
2018-07-29T07:30:02.123Z,2.93
2018-07-29T07:32:30.465Z,2.97
2018-07-29T07:34:58.773Z,2.90
2018-07-29T07:37:27.216Z,3.57
2018-07-29T07:39:55.588Z,2.80
2018-07-29T07:42:23.903Z,2.80
2018-07-29T07:44:52.196Z,2.83
2018-07-29T07:47:20.522Z,2.70
2018-07-29T07:49:48.861Z,3.00
2018-07-29T07:52:17.253Z,2.80
2018-07-29T07:54:45.565Z,2.50
2018-07-29T07:57:13.869Z,2.73
2018-07-29T07:59:42.219Z,2.60
2018-07-29T08:02:10.615Z,2.60
2018-07-29T08:04:38.902Z,2.40
2018-07-29T08:07:07.253Z,2.80
2018-07-29T08:09:35.626Z,2.70
2018-07-29T08:12:04.003Z,3.10
2018-07-29T08:14:32.325Z,2.50
2018-07-29T08:17:00.712Z,2.23
2018-07-29T08:19:29.040Z,2.30
2018-07-29T08:21:57.401Z,2.43
2018-07-29T08:24:25.726Z,2.37
2018-07-29T08:26:54.032Z,2.63
2018-07-29T08:29:22.371Z,2.47
2018-07-29T08:31:50.754Z,2.50
2018-07-29T08:34:19.121Z,2.60
2018-07-29T08:36:47.466Z,2.30
2018-07-29T08:39:15.817Z,2.30
2018-07-29T08:41:44.200Z,2.60
2018-07-29T08:44:12.528Z,2.30
2018-07-29T08:46:41.173Z,2.37
2018-07-29T08:49:09.544Z,2.67
2018-07-29T08:51:37.893Z,2.30
2018-07-29T08:54:06.233Z,2.50
2018-07-29T08:56:34.600Z,2.93
2018-07-29T08:59:03.005Z,2.90
2018-07-29T09:01:31.473Z,2.63
2018-07-29T09:03:59.918Z,2.57
2018-07-29T09:06:28.241Z,2.67
2018-07-29T09:08:56.576Z,2.70
2018-07-29T09:11:25.033Z,2.57
2018-07-29T09:13:53.348Z,2.50
2018-07-29T09:16:21.702Z,2.90
2018-07-29T09:18:50.089Z,3.50
2018-07-29T09:21:18.427Z,2.70
2018-07-29T09:23:46.832Z,2.80
2018-07-29T09:26:15.158Z,2.50
2018-07-29T09:28:43.560Z,2.70
2018-07-29T09:31:11.972Z,2.57
2018-07-29T09:33:40.316Z,2.70
2018-07-29T09:36:08.724Z,2.50
2018-07-29T09:38:37.105Z,2.67
2018-07-29T09:41:05.648Z,2.47
2018-07-29T09:43:34.060Z,2.90
2018-07-29T09:46:02.133Z,2.83
2018-07-29T09:48:30.525Z,2.73
2018-07-29T09:50:58.867Z,2.60
2018-07-29T09:53:27.208Z,2.30
2018-07-29T09:55:55.632Z,2.73
2018-07-29T09:58:24.029Z,2.90
2018-07-29T10:01:22.949Z,2.33
2018-07-29T10:03:51.410Z,2.50
2018-07-29T10:06:19.770Z,3.00
2018-07-29T10:08:47.865Z,3.00
2018-07-29T10:11:16.229Z,2.80
2018-07-29T10:13:44.593Z,3.00
2018-07-29T10:16:12.973Z,3.00
2018-07-29T10:18:41.439Z,3.20
2018-07-29T10:21:09.939Z,3.00
2018-07-29T10:23:38.224Z,3.37
2018-07-29T10:26:06.553Z,2.53
2018-07-29T10:28:34.926Z,2.90
2018-07-29T10:31:03.294Z,3.27
2018-07-29T10:33:31.750Z,2.90
2018-07-29T10:36:00.095Z,3.80
2018-07-29T10:38:28.509Z,3.03
2018-07-29T10:40:56.877Z,2.83
2018-07-29T10:43:25.241Z,2.63
2018-07-29T10:45:53.643Z,3.03
2018-07-29T10:48:22.014Z,2.83
2018-07-29T10:50:50.439Z,2.73
2018-07-29T10:53:18.783Z,2.87
2018-07-29T10:55:48.053Z,2.63
2018-07-29T10:58:16.419Z,3.27
2018-07-29T11:00:44.812Z,2.90
2018-07-29T11:03:13.214Z,3.03
2018-07-29T11:05:41.671Z,2.87
2018-07-29T11:08:10.019Z,2.53
2018-07-29T11:10:38.430Z,2.93
2018-07-29T11:13:06.782Z,2.83
2018-07-29T11:15:35.148Z,2.97
2018-07-29T11:18:03.522Z,2.50
2018-07-29T11:20:31.932Z,2.53
2018-07-29T11:23:00.387Z,2.70
2018-07-29T11:25:28.815Z,2.70
2018-07-29T11:27:57.189Z,3.00
2018-07-29T11:30:25.604Z,2.47
2018-07-29T11:32:53.948Z,2.53
2018-07-29T11:35:22.341Z,2.80
2018-07-29T11:37:50.754Z,3.10
2018-07-29T11:40:19.213Z,3.23
2018-07-29T11:42:47.636Z,3.00
2018-07-29T11:45:16.036Z,2.83
2018-07-29T11:47:44.438Z,2.90
2018-07-29T11:50:12.844Z,2.70
2018-07-29T11:52:41.329Z,2.80
2018-07-29T11:55:09.668Z,2.70
2018-07-29T11:57:38.065Z,2.83
2018-07-29T12:00:06.177Z,2.70
2018-07-29T12:02:34.580Z,2.43
2018-07-29T12:05:03.021Z,2.93
2018-07-29T12:07:31.412Z,2.60
2018-07-29T12:09:59.842Z,2.50
2018-07-29T12:12:28.225Z,2.60
2018-07-29T12:14:56.597Z,2.40
2018-07-29T12:17:25.003Z,2.70
2018-07-29T12:19:53.408Z,2.90
2018-07-29T12:22:21.769Z,2.10
2018-07-29T12:24:50.116Z,2.80
2018-07-29T12:27:18.494Z,2.20
2018-07-29T12:29:46.905Z,2.60
2018-07-29T12:32:15.301Z,2.30
2018-07-29T12:34:43.796Z,2.23
2018-07-29T12:37:12.237Z,2.80
2018-07-29T12:39:40.799Z,2.60
2018-07-29T12:42:09.370Z,2.57
2018-07-29T12:44:37.778Z,2.77
2018-07-29T12:47:06.271Z,2.63
2018-07-29T12:49:35.117Z,2.27
2018-07-29T12:52:03.543Z,2.27
2018-07-29T12:54:32.073Z,2.73
2018-07-29T12:57:00.485Z,2.20
2018-07-29T12:59:28.848Z,2.33
2018-07-29T13:01:57.229Z,2.47
2018-07-29T13:04:25.589Z,2.30
2018-07-29T13:06:53.991Z,2.80
2018-07-29T13:09:22.371Z,2.40
2018-07-29T13:11:50.759Z,2.17
2018-07-29T13:14:19.163Z,2.63
2018-07-29T13:16:47.540Z,2.33
2018-07-29T13:19:15.906Z,2.30
2018-07-29T13:21:44.027Z,2.30
2018-07-29T13:24:12.433Z,2.40
2018-07-29T13:26:40.810Z,2.60
2018-07-29T13:29:09.173Z,2.80
2018-07-29T13:31:37.598Z,2.30
2018-07-29T13:34:06.345Z,2.23
2018-07-29T13:36:34.443Z,2.93
2018-07-29T13:39:02.923Z,2.60
2018-07-29T13:41:31.309Z,2.20
2018-07-29T13:43:59.812Z,2.77
2018-07-29T13:46:28.145Z,2.40
2018-07-29T13:48:56.250Z,2.80
2018-07-29T13:51:24.627Z,2.50
2018-07-29T13:53:52.977Z,2.40
2018-07-29T13:56:21.379Z,2.50
2018-07-29T13:58:49.762Z,2.40
2018-07-29T14:01:18.153Z,2.50
2018-07-29T14:03:46.524Z,2.73
2018-07-29T14:06:14.841Z,2.70
2018-07-29T14:08:43.215Z,2.43
2018-07-29T14:11:11.624Z,2.40
2018-07-29T14:13:39.995Z,2.50
2018-07-29T14:16:08.496Z,2.50
2018-07-29T14:18:36.804Z,2.43
2018-07-29T14:21:05.262Z,2.40
2018-07-29T14:23:33.632Z,2.80
2018-07-29T14:26:01.992Z,2.33
2018-07-29T14:28:30.368Z,2.50
2018-07-29T14:30:58.761Z,2.40
2018-07-29T14:33:27.119Z,2.83
2018-07-29T14:35:55.495Z,2.73
2018-07-29T14:38:23.928Z,2.60
2018-07-29T14:40:52.310Z,2.73
2018-07-29T14:43:20.657Z,2.63
2018-07-29T14:45:49.153Z,3.40
2018-07-29T14:48:17.434Z,2.80
2018-07-29T14:50:45.765Z,2.67
2018-07-29T14:53:14.119Z,3.03
2018-07-29T14:55:42.505Z,2.90
2018-07-29T14:58:11.116Z,2.73
2018-07-29T15:00:39.460Z,2.90
2018-07-29T15:03:07.875Z,2.93
2018-07-29T15:05:36.284Z,2.50
2018-07-29T15:08:04.715Z,2.87
2018-07-29T15:10:33.098Z,2.87
2018-07-29T15:13:02.575Z,2.73
2018-07-29T15:15:30.984Z,3.77
2018-07-29T15:17:59.305Z,2.60
2018-07-29T15:20:27.711Z,2.77
2018-07-29T15:22:56.133Z,3.07
2018-07-29T15:25:24.228Z,3.03
2018-07-29T15:27:52.623Z,3.17
2018-07-29T15:30:20.961Z,2.70
2018-07-29T15:32:49.352Z,2.50
2018-07-29T15:35:17.712Z,3.20
2018-07-29T15:37:46.082Z,2.87
2018-07-29T15:40:14.438Z,3.03
2018-07-29T15:42:42.796Z,2.97
2018-07-29T15:45:11.190Z,3.30
2018-07-29T15:47:39.550Z,3.00
2018-07-29T15:50:07.933Z,3.13
2018-07-29T15:52:36.342Z,3.40
2018-07-29T15:55:04.823Z,3.30
2018-07-29T15:57:33.156Z,2.97
2018-07-29T16:00:01.473Z,3.13
2018-07-29T16:02:29.877Z,3.13
2018-07-29T16:04:58.260Z,2.90
2018-07-29T16:07:26.669Z,3.37
2018-07-29T16:09:55.008Z,2.93
2018-07-29T16:12:23.391Z,3.50
2018-07-29T16:14:51.728Z,3.50
2018-07-29T16:17:20.080Z,3.00
2018-07-29T16:19:48.415Z,3.20
2018-07-29T16:22:16.833Z,3.23
2018-07-29T16:24:45.203Z,3.30
2018-07-29T16:27:13.525Z,3.07
2018-07-29T16:29:41.966Z,4.13
2018-07-29T16:32:10.362Z,4.23
2018-07-29T16:34:38.735Z,3.10
2018-07-29T16:37:07.640Z,3.03
2018-07-29T16:39:36.033Z,3.37
2018-07-29T16:42:04.468Z,3.03
2018-07-29T16:44:32.863Z,3.23
2018-07-29T16:47:01.204Z,3.27
2018-07-29T16:49:29.580Z,3.60
2018-07-29T16:51:57.925Z,3.40
2018-07-29T16:54:26.350Z,3.07
2018-07-29T16:56:54.420Z,3.30
2018-07-29T16:59:22.774Z,3.23
2018-07-29T17:01:51.176Z,3.40
2018-07-29T17:04:19.552Z,3.37
2018-07-29T17:06:47.892Z,3.43
2018-07-29T17:09:16.255Z,3.30
2018-07-29T17:11:44.577Z,3.10
2018-07-29T17:14:12.943Z,3.27
2018-07-29T17:16:41.288Z,3.73
2018-07-29T17:19:09.630Z,2.80
2018-07-29T17:21:37.955Z,2.93
2018-07-29T17:24:06.479Z,3.30
2018-07-29T17:26:34.885Z,2.80
2018-07-29T17:29:03.277Z,3.10
2018-07-29T17:31:31.641Z,3.17
2018-07-29T17:33:59.988Z,3.07
2018-07-29T17:36:28.340Z,3.17
2018-07-29T17:38:56.676Z,3.10
2018-07-29T17:41:25.023Z,2.60
2018-07-29T17:43:53.460Z,3.10
2018-07-29T17:46:21.551Z,2.63
2018-07-29T17:48:49.947Z,3.43
2018-07-29T17:51:18.346Z,2.83
2018-07-29T17:53:46.701Z,3.17
2018-07-29T17:56:15.115Z,3.17
2018-07-29T17:58:43.563Z,2.70
2018-07-29T18:01:11.939Z,3.30
2018-07-29T18:03:40.345Z,3.20
2018-07-29T18:06:08.699Z,3.97
2018-07-29T18:08:37.083Z,3.10
2018-07-29T18:11:05.456Z,2.90
2018-07-29T18:13:33.910Z,2.70
2018-07-29T18:16:02.318Z,3.40
2018-07-29T18:18:30.775Z,3.27
2018-07-29T18:20:59.169Z,3.23
2018-07-29T18:23:27.612Z,3.30
2018-07-29T18:25:55.990Z,2.77
2018-07-29T18:28:24.348Z,3.60
2018-07-29T18:30:52.718Z,3.37
2018-07-29T18:33:21.108Z,3.03
2018-07-29T18:35:49.494Z,3.20
2018-07-29T18:38:17.983Z,3.00
2018-07-29T18:40:46.350Z,3.00
2018-07-29T18:43:14.685Z,3.07
2018-07-29T18:45:43.067Z,3.13
2018-07-29T18:48:11.695Z,3.80
2018-07-29T18:50:40.577Z,3.47
2018-07-29T18:53:08.957Z,2.83
2018-07-29T18:55:37.351Z,3.10
2018-07-29T18:58:05.815Z,3.47
2018-07-29T19:00:34.154Z,3.10
2018-07-29T19:03:02.505Z,3.00
2018-07-29T19:05:30.873Z,3.27
2018-07-29T19:07:59.276Z,3.50
2018-07-29T19:10:27.712Z,3.03
2018-07-29T19:12:56.219Z,2.70
2018-07-29T19:15:26.509Z,3.30
2018-07-29T19:17:54.897Z,3.10
2018-07-29T19:20:23.317Z,3.17
2018-07-29T19:22:51.818Z,3.07
2018-07-29T19:25:20.873Z,3.30
2018-07-29T19:27:49.269Z,3.47
2018-07-29T19:30:17.687Z,3.17
2018-07-29T19:32:46.096Z,3.37
2018-07-29T19:35:14.463Z,3.30
2018-07-29T19:37:43.198Z,3.63
2018-07-29T19:40:11.612Z,3.77
2018-07-29T19:42:39.999Z,4.60
2018-07-29T19:45:08.526Z,3.70
2018-07-29T19:47:37.053Z,3.50
2018-07-29T19:50:05.727Z,3.53
2018-07-29T19:52:34.133Z,3.17
2018-07-29T19:55:02.215Z,4.13
2018-07-29T19:57:30.284Z,3.63
2018-07-29T19:59:58.376Z,4.40
2018-07-29T20:02:26.750Z,4.13
2018-07-29T20:04:55.171Z,4.40
2018-07-29T20:07:23.545Z,4.47
2018-07-29T20:09:51.936Z,4.30
2018-07-29T20:12:20.288Z,4.10
2018-07-29T20:14:48.655Z,3.70
2018-07-29T20:17:16.791Z,3.90
2018-07-29T20:19:45.156Z,3.57
2018-07-29T20:22:13.580Z,3.60
2018-07-29T20:24:41.992Z,3.77
2018-07-29T20:27:10.356Z,4.00
2018-07-29T20:29:38.764Z,3.97
2018-07-29T20:32:07.160Z,3.90
2018-07-29T20:34:35.591Z,4.13
2018-07-29T20:37:04.055Z,4.33
2018-07-29T20:39:32.491Z,4.20
2018-07-29T20:42:00.868Z,4.63
2018-07-29T20:44:29.261Z,4.10
2018-07-29T20:46:57.730Z,4.17
2018-07-29T20:49:26.091Z,4.10
2018-07-29T20:51:54.461Z,4.00
2018-07-29T20:54:22.890Z,4.20
2018-07-29T20:56:51.182Z,4.20
2018-07-29T20:59:19.569Z,4.03
2018-07-29T21:01:47.980Z,3.80
2018-07-29T21:04:16.354Z,3.83
2018-07-29T21:06:44.682Z,3.97
2018-07-29T21:09:14.467Z,4.10
2018-07-29T21:11:42.965Z,4.30
2018-07-29T21:14:12.456Z,4.30
2018-07-29T21:16:41.280Z,4.40
2018-07-29T21:19:09.760Z,3.40
2018-07-29T21:21:38.111Z,4.30
2018-07-29T21:24:06.567Z,4.83
2018-07-29T21:26:34.940Z,5.37
2018-07-29T21:29:03.321Z,4.03
2018-07-29T21:31:31.668Z,3.97
2018-07-29T21:34:00.037Z,4.07
2018-07-29T21:36:28.470Z,3.87
2018-07-29T21:38:56.843Z,4.00
2018-07-29T21:41:25.229Z,4.50
2018-07-29T21:43:53.628Z,4.03
2018-07-29T21:46:22.072Z,4.43
2018-07-29T21:48:50.416Z,4.70
2018-07-29T21:51:18.979Z,4.50
2018-07-29T21:53:47.336Z,4.93
2018-07-29T21:56:15.716Z,4.53
2018-07-29T21:58:44.140Z,3.70
2018-07-29T22:01:12.562Z,4.43
2018-07-29T22:03:40.897Z,4.67
2018-07-29T22:06:09.264Z,4.40
2018-07-29T22:08:37.692Z,4.40
2018-07-29T22:11:06.041Z,4.57
2018-07-29T22:13:34.375Z,4.30
2018-07-29T22:16:02.723Z,5.07
2018-07-29T22:18:31.058Z,4.77
2018-07-29T22:20:59.393Z,5.30
2018-07-29T22:23:27.740Z,5.07
2018-07-29T22:26:01.371Z,4.87
2018-07-29T22:28:30.641Z,4.57
2018-07-29T22:31:05.162Z,4.90
2018-07-29T22:33:37.045Z,4.80
2018-07-29T22:36:06.934Z,4.90
2018-07-29T22:38:35.377Z,5.23
2018-07-29T22:41:03.709Z,4.80
2018-07-29T22:43:32.069Z,4.93
2018-07-29T22:46:00.388Z,4.40
2018-07-29T22:48:28.752Z,4.13
2018-07-29T22:50:57.109Z,4.73
2018-07-29T22:53:25.454Z,4.80
2018-07-29T22:55:53.754Z,5.23
2018-07-29T22:58:22.118Z,4.90
2018-07-29T23:00:50.467Z,4.43
2018-07-29T23:03:18.800Z,4.30
2018-07-29T23:05:47.116Z,5.20
2018-07-29T23:08:15.477Z,4.83
2018-07-29T23:10:43.796Z,4.57
2018-07-29T23:13:12.137Z,4.70
2018-07-29T23:15:40.484Z,5.00
2018-07-29T23:18:08.833Z,4.40
2018-07-29T23:20:37.158Z,5.20
2018-07-29T23:23:05.570Z,4.67
2018-07-29T23:25:33.928Z,4.80
2018-07-29T23:28:02.313Z,4.90
2018-07-29T23:30:30.636Z,5.57
2018-07-29T23:32:59.014Z,4.70
2018-07-29T23:35:27.370Z,5.17
2018-07-29T23:37:55.727Z,4.70
2018-07-29T23:40:24.001Z,5.13
2018-07-29T23:42:52.337Z,5.27
2018-07-29T23:45:20.691Z,5.00
2018-07-29T23:47:49.042Z,5.50
2018-07-29T23:50:17.395Z,5.10
2018-07-29T23:52:45.791Z,5.17
2018-07-29T23:55:14.204Z,5.50
2018-07-29T23:57:42.466Z,5.53
